createdAt,value
2018-12-10T07:06:15.649Z,23.11
2018-12-10T07:08:41.987Z,23.06
2018-12-10T07:11:08.322Z,23.15
2018-12-10T07:13:34.697Z,22.83
2018-12-10T07:16:01.095Z,23.11
2018-12-10T07:18:27.424Z,23.14
2018-12-10T07:20:53.828Z,23.26
2018-12-10T07:23:20.196Z,23.35
2018-12-10T07:25:46.571Z,23.52
2018-12-10T07:28:12.947Z,23.26
2018-12-10T07:30:41.516Z,23.19
2018-12-10T07:33:05.657Z,23.35
2018-12-10T07:35:32.021Z,23.15
2018-12-10T07:37:58.409Z,23.12
2018-12-10T07:40:24.726Z,23.35
2018-12-10T07:42:51.103Z,23.48
2018-12-10T07:45:17.453Z,23.56
2018-12-10T07:47:43.796Z,23.49
2018-12-10T07:50:10.173Z,23.61
2018-12-10T07:52:39.361Z,23.34
2018-12-10T07:55:05.746Z,23.51
2018-12-10T07:57:32.160Z,23.57
2018-12-10T07:59:58.556Z,23.52
2018-12-10T08:02:24.952Z,23.65
2018-12-10T08:04:51.465Z,23.68
2018-12-10T08:07:17.827Z,23.60
2018-12-10T08:09:44.317Z,23.76
2018-12-10T08:12:10.713Z,23.85
2018-12-10T08:14:37.538Z,23.73
2018-12-10T08:17:03.993Z,23.74
2018-12-10T08:19:30.297Z,23.79
2018-12-10T08:21:56.700Z,23.80
2018-12-10T08:24:23.060Z,23.80
2018-12-10T08:26:49.512Z,23.96
2018-12-10T08:29:15.806Z,23.65
2018-12-10T08:31:42.217Z,24.00
2018-12-10T08:34:08.574Z,23.85
2018-12-10T08:36:35.299Z,23.94
2018-12-10T08:39:01.658Z,23.96
2018-12-10T08:41:28.157Z,23.88
2018-12-10T08:43:54.511Z,24.00
2018-12-10T08:46:20.895Z,24.01
2018-12-10T08:48:47.344Z,24.09
2018-12-10T08:51:13.853Z,23.93
2018-12-10T08:53:40.228Z,23.90
2018-12-10T08:56:06.742Z,24.12
2018-12-10T08:58:33.088Z,23.95
2018-12-10T09:00:59.586Z,24.04
2018-12-10T09:03:25.938Z,24.01
2018-12-10T09:05:52.367Z,24.42
2018-12-10T09:08:18.703Z,24.36
2018-12-10T09:10:45.097Z,24.52
2018-12-10T09:13:11.451Z,24.35
2018-12-10T09:15:37.869Z,24.18
2018-12-10T09:18:04.278Z,24.19
2018-12-10T09:20:30.662Z,24.10
2018-12-10T09:22:56.994Z,24.32
2018-12-10T09:25:24.710Z,24.27
2018-12-10T09:27:49.700Z,24.29
2018-12-10T09:30:16.975Z,24.28
2018-12-10T09:32:43.307Z,23.79
2018-12-10T09:35:09.670Z,24.27
2018-12-10T09:37:36.013Z,24.28
2018-12-10T09:40:04.604Z,24.11
2018-12-10T09:42:31.009Z,24.14
2018-12-10T09:44:57.373Z,24.29
2018-12-10T09:47:25.227Z,24.21
2018-12-10T09:49:50.211Z,24.14
2018-12-10T09:52:16.570Z,24.19
2018-12-10T09:54:45.379Z,24.28
2018-12-10T09:57:11.707Z,24.01
2018-12-10T09:59:38.469Z,24.16
2018-12-10T10:02:12.241Z,24.38
2018-12-10T10:04:31.643Z,24.17
2018-12-10T10:06:57.983Z,24.29
2018-12-10T10:09:24.442Z,24.22
2018-12-10T10:11:50.765Z,24.30
2018-12-10T10:14:17.117Z,24.39
2018-12-10T10:16:43.546Z,24.29
2018-12-10T10:19:09.980Z,24.26
2018-12-10T10:21:36.408Z,24.41
2018-12-10T10:24:02.797Z,24.35
2018-12-10T10:26:29.315Z,24.45
2018-12-10T10:28:55.824Z,24.16
2018-12-10T10:31:22.068Z,24.45
2018-12-10T10:33:48.417Z,24.39
2018-12-10T10:36:14.824Z,24.37
2018-12-10T10:38:41.234Z,24.74
2018-12-10T10:41:07.623Z,24.42
2018-12-10T10:43:34.027Z,24.55
2018-12-10T10:46:00.375Z,24.67
2018-12-10T10:48:26.761Z,24.68
2018-12-10T10:50:53.263Z,24.48
2018-12-10T10:53:19.614Z,24.44
2018-12-10T10:55:45.994Z,24.49
2018-12-10T10:58:12.398Z,24.34
2018-12-10T11:00:38.770Z,24.41
2018-12-10T11:03:05.244Z,24.61
2018-12-10T11:05:31.617Z,24.44
2018-12-10T11:07:58.026Z,24.52
2018-12-10T11:10:24.404Z,24.50
2018-12-10T11:12:50.708Z,24.67
2018-12-10T11:15:17.064Z,24.61
2018-12-10T11:17:44.334Z,24.58
2018-12-10T11:20:11.206Z,24.73
2018-12-10T11:22:37.588Z,24.75
2018-12-10T11:25:05.078Z,24.55
2018-12-10T11:27:31.530Z,24.61
2018-12-10T11:29:57.913Z,24.49
2018-12-10T11:32:24.294Z,24.89
2018-12-10T11:34:50.713Z,24.89
2018-12-10T11:37:17.058Z,24.65
2018-12-10T11:39:43.569Z,24.50
2018-12-10T11:42:09.914Z,24.53
2018-12-10T11:44:36.305Z,24.52
2018-12-10T11:47:02.649Z,24.56
2018-12-10T11:49:29.000Z,24.49
2018-12-10T11:51:55.379Z,24.41
2018-12-10T11:54:21.815Z,24.46
2018-12-10T11:56:48.179Z,24.62
2018-12-10T11:59:14.529Z,24.57
2018-12-10T12:01:41.260Z,24.85
2018-12-10T12:04:07.628Z,24.52
2018-12-10T12:06:34.022Z,24.68
2018-12-10T12:09:00.434Z,24.85
2018-12-10T12:11:27.121Z,24.83
2018-12-10T12:13:53.528Z,24.44
2018-12-10T12:16:20.171Z,24.84
2018-12-10T12:18:46.393Z,24.77
2018-12-10T12:21:12.810Z,24.68
2018-12-10T12:23:39.197Z,24.72
2018-12-10T12:26:05.533Z,24.81
2018-12-10T12:28:31.895Z,24.88
2018-12-10T12:30:58.372Z,24.90
2018-12-10T12:33:24.729Z,24.67
2018-12-10T12:35:51.094Z,24.76
2018-12-10T12:38:17.463Z,24.92
2018-12-10T12:40:43.802Z,24.96
2018-12-10T12:43:15.839Z,24.98
2018-12-10T12:45:36.621Z,24.70
2018-12-10T12:48:03.096Z,24.94
2018-12-10T12:50:29.504Z,25.10
2018-12-10T12:52:55.914Z,24.89
2018-12-10T12:55:22.306Z,24.94
2018-12-10T12:57:48.649Z,24.80
2018-12-10T13:00:16.063Z,25.00
2018-12-10T13:02:42.461Z,25.00
2018-12-10T13:05:08.797Z,24.96
2018-12-10T13:07:35.154Z,24.92
2018-12-10T13:10:01.559Z,24.82
2018-12-10T13:12:27.869Z,24.89
2018-12-10T13:14:54.299Z,24.96
2018-12-10T13:17:21.197Z,25.07
2018-12-10T13:19:47.620Z,25.03
2018-12-10T13:22:14.070Z,24.89
2018-12-10T13:24:40.433Z,25.00
2018-12-10T13:27:06.792Z,25.10
2018-12-10T13:29:33.284Z,25.16
2018-12-10T13:31:59.627Z,24.97
2018-12-10T13:34:25.979Z,25.08
2018-12-10T13:36:52.372Z,25.15
2018-12-10T13:39:18.710Z,24.97
2018-12-10T13:41:45.119Z,25.10
2018-12-10T13:44:11.493Z,25.00
2018-12-10T13:46:37.846Z,24.99
2018-12-10T13:49:04.359Z,25.07
2018-12-10T13:51:30.626Z,24.87
2018-12-10T13:53:56.958Z,24.95
2018-12-10T13:56:23.337Z,24.99
2018-12-10T13:58:49.806Z,24.97
2018-12-10T14:01:16.155Z,24.98
2018-12-10T14:03:42.582Z,24.87
2018-12-10T14:06:08.927Z,24.94
2018-12-10T14:08:35.268Z,24.89
2018-12-10T14:11:01.668Z,24.85
2018-12-10T14:13:28.004Z,24.98
2018-12-10T14:15:54.338Z,25.00
2018-12-10T14:18:20.874Z,25.08
2018-12-10T14:20:47.305Z,25.12
2018-12-10T14:23:13.707Z,24.93
2018-12-10T14:25:40.041Z,24.72
2018-12-10T14:28:06.392Z,24.78
2018-12-10T14:30:32.758Z,24.81
2018-12-10T14:32:59.120Z,24.79
2018-12-10T14:35:25.461Z,24.84
2018-12-10T14:37:51.920Z,24.79
2018-12-10T14:40:20.847Z,24.78
2018-12-10T14:42:47.186Z,24.75
2018-12-10T14:45:13.648Z,24.82
2018-12-10T14:47:40.091Z,24.85
2018-12-10T14:50:06.428Z,24.85
2018-12-10T14:52:32.778Z,24.73
2018-12-10T14:54:59.164Z,24.62
2018-12-10T14:57:25.507Z,24.61
2018-12-10T14:59:51.902Z,24.60
2018-12-10T15:02:18.673Z,24.52
2018-12-10T15:04:45.075Z,24.61
2018-12-10T15:07:11.400Z,24.65
2018-12-10T15:09:37.877Z,24.46
2018-12-10T15:12:04.232Z,24.48
2018-12-10T15:14:30.614Z,24.77
2018-12-10T15:16:57.436Z,24.54
2018-12-10T15:19:23.788Z,24.56
2018-12-10T15:21:50.126Z,24.74
2018-12-10T15:24:16.472Z,24.55
2018-12-10T15:26:42.848Z,24.51
2018-12-10T15:29:09.158Z,24.50
2018-12-10T15:31:35.647Z,24.52
2018-12-10T15:34:01.984Z,24.55
2018-12-10T15:36:28.382Z,24.42
2018-12-10T15:38:54.747Z,24.59
2018-12-10T15:41:21.089Z,24.49
2018-12-10T15:43:47.447Z,24.49
2018-12-10T15:46:13.785Z,24.51
2018-12-10T15:48:40.210Z,24.56
2018-12-10T15:51:06.583Z,24.38
2018-12-10T15:53:32.983Z,24.58
2018-12-10T15:56:01.645Z,24.52
2018-12-10T15:58:27.999Z,24.43
2018-12-10T16:00:54.531Z,24.43
2018-12-10T16:03:20.849Z,24.44
2018-12-10T16:05:47.279Z,24.35
2018-12-10T16:08:13.610Z,24.41
2018-12-10T16:10:41.574Z,24.44
2018-12-10T16:13:07.970Z,24.39
2018-12-10T16:15:34.360Z,24.40
2018-12-10T16:18:00.688Z,24.31
2018-12-10T16:20:27.045Z,24.42
2018-12-10T16:22:53.374Z,24.38
2018-12-10T16:25:19.839Z,24.43
2018-12-10T16:27:46.218Z,24.33
2018-12-10T16:30:12.583Z,24.16
2018-12-10T16:32:38.933Z,24.13
2018-12-10T16:35:05.338Z,24.16
2018-12-10T16:37:31.640Z,24.03
2018-12-10T16:39:58.023Z,24.17
2018-12-10T16:42:24.353Z,24.16
2018-12-10T16:44:50.712Z,24.16
2018-12-10T16:47:17.083Z,24.02
2018-12-10T16:49:43.528Z,23.97
2018-12-10T16:52:09.817Z,24.01
2018-12-10T16:54:36.247Z,24.00
2018-12-10T16:57:02.597Z,24.09
2018-12-10T16:59:28.934Z,24.12
2018-12-10T17:01:55.282Z,23.97
2018-12-10T17:04:21.646Z,23.96
2018-12-10T17:06:48.043Z,24.12
2018-12-10T17:09:14.344Z,24.05
2018-12-10T17:11:40.688Z,24.05
2018-12-10T17:14:07.037Z,23.97
2018-12-10T17:16:33.364Z,23.93
2018-12-10T17:18:59.750Z,23.86
2018-12-10T17:21:26.085Z,23.91
2018-12-10T17:23:52.429Z,23.85
2018-12-10T17:26:18.759Z,23.76
2018-12-10T17:28:45.119Z,23.82
2018-12-10T17:31:11.466Z,23.72
2018-12-10T17:33:37.815Z,23.72
2018-12-10T17:36:04.145Z,23.71
2018-12-10T17:38:30.574Z,23.69
2018-12-10T17:40:56.930Z,23.62
2018-12-10T17:43:23.279Z,23.62
2018-12-10T17:45:49.608Z,23.62
2018-12-10T17:48:15.963Z,23.56
2018-12-10T17:50:42.296Z,23.66
2018-12-10T17:53:08.664Z,23.51
2018-12-10T17:55:35.004Z,23.56
2018-12-10T17:58:01.384Z,23.48
2018-12-10T18:00:27.777Z,23.46
2018-12-10T18:02:54.116Z,23.45
2018-12-10T18:05:20.491Z,23.41
2018-12-10T18:07:47.098Z,23.31
2018-12-10T18:10:13.282Z,23.17
2018-12-10T18:12:39.696Z,23.29
2018-12-10T18:15:06.036Z,23.25
2018-12-10T18:17:32.399Z,23.23
2018-12-10T18:19:58.916Z,23.20
2018-12-10T18:22:25.460Z,23.11
2018-12-10T18:24:51.808Z,23.09
2018-12-10T18:27:18.175Z,23.27
2018-12-10T18:29:44.636Z,23.16
2018-12-10T18:32:11.312Z,23.10
2018-12-10T18:34:37.885Z,23.11
2018-12-10T18:37:04.366Z,23.19
2018-12-10T18:39:30.700Z,23.01
2018-12-10T18:41:57.136Z,22.99
2018-12-10T18:44:25.831Z,22.99
2018-12-10T18:46:52.648Z,22.97
2018-12-10T18:49:20.141Z,22.95
2018-12-10T18:51:47.166Z,22.93
2018-12-10T18:54:14.183Z,22.90
2018-12-10T18:56:41.570Z,22.88
2018-12-10T18:59:08.149Z,22.86
2018-12-10T19:01:35.256Z,22.88
2018-12-10T19:04:01.838Z,22.85
2018-12-10T19:06:28.462Z,22.81
2018-12-10T19:08:55.474Z,22.78
2018-12-10T19:11:22.071Z,22.78
2018-12-10T19:13:50.159Z,22.76
2018-12-10T19:16:16.118Z,22.76
2018-12-10T19:18:43.157Z,22.76
2018-12-10T19:21:09.807Z,22.73
2018-12-10T19:23:36.550Z,22.71
2018-12-10T19:26:03.214Z,22.71
2018-12-10T19:28:29.707Z,22.70
2018-12-10T19:30:56.501Z,22.69
2018-12-10T19:33:23.028Z,22.64
2018-12-10T19:35:49.521Z,22.64
2018-12-10T19:38:16.235Z,22.64
2018-12-10T19:40:42.808Z,22.62
2018-12-10T19:43:09.331Z,22.60
2018-12-10T19:45:36.238Z,22.61
2018-12-10T19:48:02.815Z,22.57
2018-12-10T19:50:29.145Z,22.55
2018-12-10T19:52:56.076Z,22.50
2018-12-10T19:55:22.691Z,22.50
2018-12-10T19:57:49.191Z,22.48
2018-12-10T20:00:15.677Z,22.47
2018-12-10T20:02:42.500Z,22.48
2018-12-10T20:05:09.106Z,22.47
2018-12-10T20:07:35.625Z,22.43
2018-12-10T20:10:02.188Z,22.41
2018-12-10T20:12:28.665Z,22.40
2018-12-10T20:14:55.249Z,22.31
2018-12-10T20:17:21.656Z,22.27
2018-12-10T20:19:48.025Z,22.25
2018-12-10T20:22:14.383Z,22.20
2018-12-10T20:24:40.920Z,22.17
2018-12-10T20:27:07.300Z,22.17
2018-12-10T20:29:33.824Z,22.13
2018-12-10T20:32:02.127Z,22.11
2018-12-10T20:34:28.569Z,22.10
2018-12-10T20:36:54.923Z,22.09
2018-12-10T20:39:21.330Z,22.08
2018-12-10T20:41:47.853Z,22.05
2018-12-10T20:44:14.113Z,22.06
2018-12-10T20:46:40.473Z,22.01
2018-12-10T20:49:06.858Z,21.98
2018-12-10T20:51:33.274Z,21.97
2018-12-10T20:53:59.657Z,21.93
2018-12-10T20:56:26.046Z,21.95
2018-12-10T20:58:52.443Z,21.95
2018-12-10T21:01:18.937Z,21.93
2018-12-10T21:03:45.330Z,21.85
2018-12-10T21:06:11.786Z,21.86
2018-12-10T21:08:38.116Z,21.81
2018-12-10T21:11:04.510Z,21.84
2018-12-10T21:13:30.877Z,21.84
2018-12-10T21:15:57.271Z,21.83
2018-12-10T21:18:23.596Z,21.76
2018-12-10T21:20:49.931Z,21.78
2018-12-10T21:23:16.288Z,21.75
2018-12-10T21:25:42.660Z,21.73
2018-12-10T21:28:08.998Z,21.75
2018-12-10T21:30:35.509Z,21.73
2018-12-10T21:33:01.844Z,21.69
2018-12-10T21:35:28.216Z,21.69
2018-12-10T21:37:54.564Z,21.66
2018-12-10T21:40:20.913Z,21.65
2018-12-10T21:42:47.266Z,21.65
2018-12-10T21:45:13.675Z,21.69
2018-12-10T21:47:40.103Z,21.63
2018-12-10T21:50:06.437Z,21.60
2018-12-10T21:52:32.732Z,21.60
2018-12-10T21:54:59.067Z,21.54
2018-12-10T21:57:25.470Z,21.52
2018-12-10T21:59:51.795Z,21.57
2018-12-10T22:02:18.185Z,21.60
2018-12-10T22:04:44.556Z,21.54
2018-12-10T22:07:12.206Z,21.56
2018-12-10T22:09:37.208Z,21.53
2018-12-10T22:12:03.536Z,21.52
2018-12-10T22:14:30.330Z,21.52
2018-12-10T22:16:56.269Z,21.44
2018-12-10T22:19:22.600Z,21.43
2018-12-10T22:21:48.928Z,21.46
2018-12-10T22:24:15.271Z,21.40
2018-12-10T22:26:41.595Z,21.40
2018-12-10T22:29:07.957Z,21.36
2018-12-10T22:31:34.326Z,21.34
2018-12-10T22:34:00.658Z,21.30
2018-12-10T22:36:27.038Z,21.32
2018-12-10T22:38:53.478Z,21.28
2018-12-10T22:41:19.836Z,21.28
2018-12-10T22:43:46.215Z,21.28
2018-12-10T22:46:12.601Z,21.26
2018-12-10T22:48:38.992Z,21.31
2018-12-10T22:51:05.338Z,21.20
2018-12-10T22:53:31.729Z,21.18
2018-12-10T22:55:58.097Z,21.20
2018-12-10T22:58:24.472Z,21.17
2018-12-10T23:00:50.957Z,21.11
2018-12-10T23:03:17.334Z,21.12
2018-12-10T23:05:43.743Z,21.13
2018-12-10T23:08:10.080Z,21.08
2018-12-10T23:10:36.602Z,21.05
2018-12-10T23:13:02.944Z,21.03
2018-12-10T23:15:29.296Z,20.99
2018-12-10T23:17:55.660Z,21.03
2018-12-10T23:20:22.063Z,21.02
2018-12-10T23:22:48.396Z,21.04
2018-12-10T23:25:14.715Z,21.03
2018-12-10T23:27:41.053Z,20.97
2018-12-10T23:30:07.440Z,20.98
2018-12-10T23:32:33.832Z,20.99
2018-12-10T23:35:00.180Z,20.90
2018-12-10T23:37:26.535Z,20.94
2018-12-10T23:39:52.970Z,20.91
2018-12-10T23:42:19.388Z,20.87
2018-12-10T23:44:45.726Z,20.86
2018-12-10T23:47:12.098Z,20.84
2018-12-10T23:49:38.412Z,20.81
2018-12-10T23:52:04.799Z,20.87
2018-12-10T23:54:31.167Z,20.81
2018-12-10T23:56:57.489Z,20.81
2018-12-10T23:59:23.828Z,20.79
